Airfield :
LOGIN :

Register | Disclaimer

   EN    FR    IT 

 










Legend :    VFR   Marginal VFR   IFR   Intensive IFR   Very Intensive IFR
Visi :
Ceiling :
>= 8 km
>= 3000ft
5 to 8 km
1000 to 3000 ft
1500m to 5 km
500 to 1000 ft
800 to 1500m
200 to 500 ft
< 800m
< 200 ft
Symbols :   Thunderstorms  Fog  Heavy snow  Heavy precipitations  Wind > 20 kt
SIGMETs :     Misc.  Thunderstorms  Icing  Turbulence  Mountain Waves  Volcanic Ashes







- Airport Elevation : 75 ft
- IATA code : YEO


EGDY - RNAS Yeovilton

CURRENT METAR :
  • 191222Z 17008KT 9999 -RADZ FEW007 SCT015 BKN040 15/13 Q1000 WHT NOSIG

EXPIRED METARs :
  • 191150Z 19010KT 6000 RADZ FEW004 SCT010 BKN040 15/14 Q1001 GRN NOSIG
  • 191017Z 12006KT 3500 -RADZ SCT006 SCT010 BKN035 15/14 Q1001 YLO1 TEMPO 2000 RADZ SCT004 YLO2
  • 190950Z 09002KT 5000 -RADZ FEW005 SCT010 BKN035 14/14 Q1002 GRN TEMPO 3500 SCT005 YLO1

TAF TAF EGDY
Valid from the 19 at 12:00 until the 19 at 21:00 UTC


191112Z 1912/1921 19010KT 3500 -RADZ BR SCT006 BKN020
TEMPO 1912/1913 2000 RADZ BR BKN006
BECMG 1912/1914 8000 BR BKN012
TEMPO 1915/1919 19015G25KT 7000 -RA BKN008
TEMPO 1915/1919 5000 RA
BECMG 1918/1920 22015G25KT 9999 NSW SCT020
TEMPO 1920/1921 7000 -SHRA SCT012TCU
No reported NOTAMs for that airfield.



MET'MAP, your aeronautical weather chart ! - Copyright ORBIFLY December 2007 - Disclaimer

ORBIFLY MET'MAP TEAM :

Programming & Development : Alexandra Zaïnal
Concept & Development : Baudouin d'Aumeries
Co-Development & Prog : Marc-Olivier Méhu
Technical & hardware support : Manuel Goepfert

Contact : metmap@orbifly.com




SOURCES & CREDITS :

   NOAA